Time;durP1;ratioP1;P1;durP2;ratioP2;P2;SDS_P1;SDS_P2;PMS_P1;PMS_P2;Temp;Humidity;BMP_temperature;BMP_pressure;BME280_temperature;BME280_humidity;BME280_pressure;Samples;Min_cycle;Max_cycle;Signal;HPM_P1;HPM_P2
2021/12/05 00:24:13;;;;;;;116.15;59.65;;;5.10;99.90;;;;;;5117268;28;20408;-54
2021/12/05 00:26:40;;;;;;;114.93;58.65;;;5.10;99.90;;;;;;5117086;28;20038;-62
2021/12/05 00:57:47;;;;;;;120.70;60.05;;;5.20;99.90;;;;;;5116657;28;20483;-59
2021/12/05 01:14:06;;;;;;;102.68;52.67;;;5.40;99.90;;;;;;5116270;28;20111;-60
2021/12/05 01:16:32;;;;;;;91.65;47.72;;;5.30;99.90;;;;;;5116462;28;20385;-60
2021/12/05 01:18:58;;;;;;;97.32;49.80;;;5.40;99.90;;;;;;5116450;28;20400;-58
2021/12/05 01:21:25;;;;;;;102.13;52.95;;;5.40;99.90;;;;;;5116350;28;20024;-59
2021/12/05 01:26:58;;;;;;;76.80;41.22;;;5.40;99.90;;;;;;5086677;28;20034;-60
2021/12/05 01:29:43;;;;;;;89.55;42.63;;;5.40;99.90;;;;;;5116113;28;20054;-58
2021/12/05 01:58:31;;;;;;;62.08;33.55;;;5.80;99.90;;;;;;5115619;28;20427;-58
2021/12/05 02:43:36;;;;;;;72.07;36.65;;;5.80;99.90;;;;;;5114456;28;20028;-59
2021/12/05 02:46:04;;;;;;;63.65;34.35;;;5.80;99.90;;;;;;5114743;28;20034;-56
2021/12/05 02:48:34;;;;;;;55.30;29.83;;;5.70;99.90;;;;;;5114388;28;20089;-59
2021/12/05 02:51:02;;;;;;;64.03;32.15;;;5.70;99.90;;;;;;5114519;28;20071;-56
2021/12/05 02:53:37;;;;;;;75.57;37.53;;;5.80;99.90;;;;;;5114458;28;20067;-57
2021/12/05 02:56:03;;;;;;;57.88;31.50;;;5.80;99.90;;;;;;5114066;28;20031;-60
2021/12/05 02:58:51;;;;;;;47.95;27.17;;;5.70;99.90;;;;;;5114434;28;20024;-58
2021/12/05 03:01:34;;;;;;;57.30;29.13;;;5.70;99.90;;;;;;5114520;28;20081;-56
2021/12/05 03:03:59;;;;;;;50.20;26.90;;;5.70;99.90;;;;;;5114384;28;20039;-61
2021/12/05 03:06:28;;;;;;;60.05;29.50;;;5.70;99.90;;;;;;5114021;28;20426;-59
2021/12/05 03:08:57;;;;;;;46.22;25.67;;;5.70;99.90;;;;;;5113950;28;20488;-60
2021/12/05 03:11:24;;;;;;;46.65;25.52;;;5.70;99.90;;;;;;5114187;28;20093;-53
2021/12/05 03:13:50;;;;;;;48.75;26.65;;;5.80;99.90;;;;;;5114003;28;20058;-61
2021/12/05 03:16:18;;;;;;;46.45;25.13;;;5.80;99.90;;;;;;5114369;28;20051;-60
2021/12/05 03:18:44;;;;;;;44.00;23.95;;;5.80;99.90;;;;;;5114260;28;20026;-58
2021/12/05 03:21:11;;;;;;;47.45;27.15;;;5.70;99.90;;;;;;5113953;28;20024;-61
2021/12/05 03:23:39;;;;;;;45.97;26.20;;;5.80;99.90;;;;;;5113798;28;20119;-62
2021/12/05 03:26:06;;;;;;;57.85;30.83;;;5.80;99.90;;;;;;5114135;28;20047;-57
2021/12/05 03:28:32;;;;;;;52.35;28.02;;;5.80;99.90;;;;;;5113848;28;20015;-57
2021/12/05 03:30:59;;;;;;;52.20;27.67;;;5.80;99.90;;;;;;5113981;28;20380;-57
2021/12/05 03:33:25;;;;;;;67.03;34.97;;;5.70;99.90;;;;;;5113610;28;20123;-58
2021/12/05 03:35:51;;;;;;;62.78;32.78;;;5.70;99.90;;;;;;5114008;28;20059;-58
2021/12/05 03:38:17;;;;;;;65.82;34.38;;;5.70;99.90;;;;;;5113676;28;20055;-58
2021/12/05 03:40:43;;;;;;;48.03;26.63;;;5.70;99.90;;;;;;5113729;28;20389;-59
2021/12/05 03:43:14;;;;;;;59.97;33.17;;;5.70;99.90;;;;;;5113615;28;20024;-57
2021/12/05 03:45:44;;;;;;;53.88;28.45;;;5.70;99.90;;;;;;5113864;28;20078;-57
2021/12/05 03:48:14;;;;;;;47.28;27.33;;;5.80;99.90;;;;;;5114249;28;20022;-60
2021/12/05 03:50:41;;;;;;;39.95;23.08;;;5.80;99.90;;;;;;5117875;28;20026;-59
2021/12/05 03:53:09;;;;;;;41.85;24.50;;;5.90;99.90;;;;;;5117852;28;20046;-57
2021/12/05 03:55:36;;;;;;;48.30;25.88;;;5.90;99.90;;;;;;5117834;28;20411;-62
2021/12/05 03:58:02;;;;;;;43.90;24.70;;;6.00;99.90;;;;;;5117959;28;20026;-56
2021/12/05 04:00:31;;;;;;;47.10;23.48;;;5.90;99.90;;;;;;5117964;28;20023;-61
2021/12/05 04:02:59;;;;;;;37.60;21.85;;;5.90;99.90;;;;;;5117603;28;20103;-54
2021/12/05 04:05:26;;;;;;;41.28;23.40;;;6.00;99.90;;;;;;5117528;28;20500;-53
2021/12/05 04:07:52;;;;;;;38.25;20.33;;;6.10;99.90;;;;;;5117712;28;20023;-56
2021/12/05 04:10:18;;;;;;;39.40;21.67;;;6.10;99.90;;;;;;5117788;28;20019;-55
2021/12/05 04:12:46;;;;;;;35.88;19.08;;;6.10;99.90;;;;;;5117499;28;20053;-58
2021/12/05 04:15:13;;;;;;;37.70;20.08;;;6.10;99.90;;;;;;5117692;28;20377;-58
2021/12/05 04:17:39;;;;;;;33.97;19.02;;;6.20;99.90;;;;;;5117523;28;20016;-56
2021/12/05 04:20:07;;;;;;;30.38;18.17;;;6.20;99.90;;;;;;5117266;28;20019;-57
2021/12/05 04:22:33;;;;;;;30.15;16.92;;;6.20;99.90;;;;;;5116986;28;20031;-60
2021/12/05 04:25:04;;;;;;;39.28;20.48;;;6.30;99.90;;;;;;5117241;28;20103;-62
2021/12/05 04:27:30;;;;;;;25.75;15.63;;;6.30;99.90;;;;;;5117171;28;20043;-56
2021/12/05 04:29:56;;;;;;;27.63;15.88;;;6.40;99.90;;;;;;5117440;28;20020;-62
2021/12/05 04:32:22;;;;;;;32.03;17.20;;;6.40;99.90;;;;;;5116824;28;20024;-57
2021/12/05 04:34:47;;;;;;;35.67;21.95;;;6.40;99.90;;;;;;5116966;28;20095;-55
2021/12/05 04:37:13;;;;;;;34.90;20.17;;;6.40;99.90;;;;;;5117329;28;20126;-55
2021/12/05 04:39:39;;;;;;;36.40;19.38;;;6.40;99.90;;;;;;5116950;28;20427;-56
2021/12/05 04:42:05;;;;;;;30.65;18.05;;;6.40;99.90;;;;;;5117080;28;20024;-50
2021/12/05 04:44:31;;;;;;;28.23;16.88;;;6.40;99.90;;;;;;5117027;28;20020;-59
2021/12/05 04:46:57;;;;;;;40.10;22.27;;;6.40;99.90;;;;;;5116754;28;20492;-61
2021/12/05 04:49:23;;;;;;;34.67;20.55;;;6.40;99.90;;;;;;5117096;28;20161;-58
2021/12/05 04:51:50;;;;;;;29.45;18.58;;;6.30;99.90;;;;;;5116543;28;20034;-57
2021/12/05 04:54:19;;;;;;;35.50;20.58;;;6.30;99.90;;;;;;5116757;28;20016;-57
2021/12/05 04:56:48;;;;;;;36.17;19.35;;;6.40;99.90;;;;;;5116715;28;20465;-60
2021/12/05 04:59:15;;;;;;;39.72;22.92;;;6.30;99.90;;;;;;5116621;28;20108;-56
2021/12/05 05:01:47;;;;;;;37.25;20.55;;;6.40;99.90;;;;;;5115829;28;20028;-60
2021/12/05 05:04:24;;;;;;;33.17;19.23;;;6.40;99.90;;;;;;5116511;28;20032;-60
2021/12/05 05:06:51;;;;;;;32.95;19.58;;;6.50;99.90;;;;;;5116265;28;20023;-54
2021/12/05 05:09:17;;;;;;;38.17;21.35;;;6.50;99.90;;;;;;5116702;28;20026;-61
2021/12/05 05:11:43;;;;;;;44.85;24.75;;;6.60;99.90;;;;;;5116621;28;20020;-55
2021/12/05 05:14:09;;;;;;;43.03;23.75;;;6.60;99.90;;;;;;5116630;28;20380;-57
2021/12/05 05:16:35;;;;;;;45.95;25.02;;;6.70;99.90;;;;;;5116341;28;20030;-57
2021/12/05 05:19:03;;;;;;;42.45;24.25;;;6.70;99.90;;;;;;5116463;28;20088;-58
2021/12/05 05:21:56;;;;;;;43.35;24.13;;;6.70;99.90;;;;;;5116296;28;20377;-60
2021/12/05 05:27:09;;;;;;;37.72;21.67;;;6.70;99.90;;;;;;5116081;28;20373;-55
2021/12/05 05:40:53;;;;;;;31.90;19.15;;;6.80;99.90;;;;;;5116069;28;20034;-60
2021/12/05 05:46:18;;;;;;;39.92;23.65;;;6.80;99.90;;;;;;5115818;28;20028;-60
2021/12/05 05:51:08;;;;;;;55.13;27.65;;;6.70;99.90;;;;;;5115761;28;20385;-52
2021/12/05 05:53:34;;;;;;;52.65;26.38;;;6.70;99.90;;;;;;5115549;28;20072;-51
2021/12/05 05:56:01;;;;;;;54.33;26.77;;;6.80;99.90;;;;;;5115762;28;20384;-58
2021/12/05 05:58:38;;;;;;;58.05;29.83;;;6.70;99.90;;;;;;5115405;28;20111;-51
2021/12/05 06:01:09;;;;;;;47.03;25.05;;;6.70;99.90;;;;;;5115693;28;20027;-59
2021/12/05 06:03:34;;;;;;;53.72;27.73;;;6.70;99.90;;;;;;5115104;28;20031;-56
2021/12/05 06:06:06;;;;;;;46.95;23.50;;;6.70;99.90;;;;;;5115553;28;20376;-58
2021/12/05 06:08:34;;;;;;;60.63;28.63;;;6.70;99.90;;;;;;5115129;28;20032;-57
2021/12/05 06:11:12;;;;;;;46.17;22.77;;;6.80;99.90;;;;;;5115362;28;20016;-58
2021/12/05 06:13:39;;;;;;;45.20;24.00;;;6.80;99.90;;;;;;5114422;28;20515;-55
2021/12/05 06:16:06;;;;;;;47.20;24.63;;;6.80;99.90;;;;;;5115001;28;20023;-57
2021/12/05 06:18:32;;;;;;;50.70;25.10;;;6.80;99.90;;;;;;5115199;28;20020;-57
2021/12/05 06:20:58;;;;;;;38.63;19.65;;;6.80;99.90;;;;;;5115260;28;20583;-56
2021/12/05 06:23:24;;;;;;;39.20;20.25;;;6.80;99.90;;;;;;5115062;28;20028;-59
2021/12/05 06:25:52;;;;;;;63.63;31.83;;;6.90;99.90;;;;;;5115024;28;20454;-52
2021/12/05 06:28:26;;;;;;;49.92;25.13;;;6.90;99.90;;;;;;5115166;28;20020;-58
2021/12/05 06:37:12;;;;;;;49.03;25.33;;;6.90;99.90;;;;;;5115127;28;20031;-57
2021/12/05 06:47:13;;;;;;;43.47;22.92;;;7.00;99.90;;;;;;5114368;28;20077;-60
2021/12/05 06:49:41;;;;;;;40.30;21.48;;;7.00;99.90;;;;;;5114394;28;20397;-61
2021/12/05 06:52:08;;;;;;;52.42;29.88;;;7.10;99.90;;;;;;5114687;28;20050;-55
2021/12/05 06:54:35;;;;;;;79.95;44.25;;;7.10;99.90;;;;;;5114620;28;20019;-61
2021/12/05 06:57:02;;;;;;;76.97;44.22;;;7.00;99.90;;;;;;5114210;28;20031;-56
2021/12/05 06:59:27;;;;;;;65.90;37.25;;;6.80;99.90;;;;;;5114227;28;20027;-56
2021/12/05 07:01:53;;;;;;;69.53;40.53;;;6.80;99.90;;;;;;5114073;28;20099;-58
2021/12/05 07:07:04;;;;;;;;;;;6.90;99.90;;;;;;5114759;28;20046;-59
2021/12/05 07:09:30;;;;;;;104.78;57.00;;;6.80;99.90;;;;;;5114109;28;19904;-57
2021/12/05 07:15:05;;;;;;;74.85;45.17;;;6.50;99.90;;;;;;5114127;28;20023;-61
2021/12/05 07:20:33;;;;;;;59.78;36.17;;;6.70;99.90;;;;;;5114328;28;20414;-54
2021/12/05 07:23:34;;;;;;;53.47;33.00;;;6.80;99.90;;;;;;5113462;28;20031;-57
2021/12/05 07:42:43;;;;;;;;;;;7.00;99.90;;;;;;5114154;28;20453;-62
2021/12/05 07:45:14;;;;;;;47.15;28.35;;;6.90;99.90;;;;;;5113453;28;19907;-61
2021/12/05 07:47:44;;;;;;;52.20;30.33;;;7.00;99.90;;;;;;5113588;28;20024;-60
2021/12/05 07:50:12;;;;;;;70.80;34.33;;;7.10;99.90;;;;;;5113556;28;20032;-62
2021/12/05 07:52:44;;;;;;;72.13;34.38;;;7.20;99.90;;;;;;5113836;28;20468;-62
2021/12/05 07:55:29;;;;;;;60.80;33.80;;;7.30;99.90;;;;;;5113637;28;20023;-56
2021/12/05 08:14:26;;;;;;;40.47;24.98;;;7.50;99.90;;;;;;5113785;28;20030;-54
2021/12/05 08:14:48;;;;;;;44.47;28.02;;;7.80;99.90;;;;;;5113497;28;20115;-57
2021/12/05 08:17:18;;;;;;;33.00;21.25;;;8.00;99.90;;;;;;5113336;28;20102;-52
2021/12/05 08:19:44;;;;;;;39.92;26.65;;;8.00;99.90;;;;;;5113404;28;20028;-62
2021/12/05 08:22:10;;;;;;;38.63;24.63;;;8.10;99.90;;;;;;5113469;28;20040;-60
2021/12/05 08:24:39;;;;;;;47.50;30.05;;;8.10;99.90;;;;;;5113478;28;20058;-61
2021/12/05 08:27:06;;;;;;;53.05;31.02;;;8.10;99.90;;;;;;5113260;28;20052;-63
2021/12/05 08:35:09;;;;;;;54.95;32.22;;;8.10;99.90;;;;;;5113294;28;20016;-61
2021/12/05 09:22:02;;;;;;;135.52;77.15;;;8.20;99.90;;;;;;5116318;28;20292;-62
2021/12/05 10:13:15;;;;;;;208.80;105.90;;;7.80;99.90;;;;;;5093550;28;20060;-62
2021/12/05 10:37:06;;;;;;;232.90;113.82;;;8.00;99.90;;;;;;5114648;28;20097;-58
2021/12/05 10:39:32;;;;;;;223.45;108.07;;;8.00;99.90;;;;;;5114799;28;20047;-53
2021/12/05 10:42:13;;;;;;;186.55;97.93;;;8.00;99.90;;;;;;5114527;28;20043;-59
2021/12/05 10:44:44;;;;;;;230.75;115.13;;;8.00;99.90;;;;;;5114586;28;20032;-63
2021/12/05 10:47:11;;;;;;;259.63;129.65;;;8.10;99.90;;;;;;5114550;28;20065;-58
2021/12/05 10:49:37;;;;;;;260.35;123.95;;;8.00;99.90;;;;;;5114407;28;20023;-55
2021/12/05 10:52:04;;;;;;;397.42;158.85;;;7.90;99.90;;;;;;5114385;28;20020;-52
2021/12/05 10:54:30;;;;;;;314.88;137.18;;;7.90;99.90;;;;;;5114485;28;20385;-57
2021/12/05 10:57:02;;;;;;;298.83;141.20;;;7.90;99.90;;;;;;5114298;28;20019;-61
2021/12/05 10:59:37;;;;;;;255.32;123.78;;;8.00;99.90;;;;;;5113851;28;20020;-54
2021/12/05 11:02:06;;;;;;;196.93;103.38;;;8.00;99.90;;;;;;5114188;28;20020;-63
2021/12/05 11:04:40;;;;;;;214.35;114.05;;;8.00;99.90;;;;;;5114445;28;20111;-53
2021/12/05 11:07:06;;;;;;;250.13;125.55;;;8.00;99.90;;;;;;5114158;28;20027;-51
2021/12/05 11:09:36;;;;;;;204.15;109.32;;;8.10;99.90;;;;;;5113915;28;20019;-58
2021/12/05 11:12:14;;;;;;;278.88;138.05;;;8.10;99.90;;;;;;5114345;28;20028;-56
2021/12/05 11:15:01;;;;;;;282.27;141.43;;;8.10;99.90;;;;;;5114315;28;20042;-57
2021/12/05 11:17:32;;;;;;;263.15;130.40;;;8.00;99.90;;;;;;5113821;28;20396;-55
2021/12/05 11:20:09;;;;;;;226.27;116.38;;;8.10;99.90;;;;;;5114126;28;20111;-59
2021/12/05 11:22:38;;;;;;;219.93;116.57;;;8.10;99.90;;;;;;5114027;28;20027;-57
2021/12/05 11:25:11;;;;;;;227.85;116.55;;;8.10;99.90;;;;;;5113913;28;20019;-57
2021/12/05 11:27:48;;;;;;;185.73;103.03;;;8.10;99.90;;;;;;5113733;28;20468;-57
2021/12/05 11:30:31;;;;;;;414.08;190.68;;;8.10;99.90;;;;;;5114133;28;20434;-58
2021/12/05 11:33:02;;;;;;;459.40;215.70;;;8.10;99.90;;;;;;5113742;28;20047;-59
2021/12/05 11:35:27;;;;;;;630.25;310.67;;;8.10;99.90;;;;;;5114084;28;20036;-59
2021/12/05 11:37:56;;;;;;;480.10;238.48;;;8.10;99.90;;;;;;5113526;28;20362;-57
2021/12/05 11:40:24;;;;;;;349.60;172.68;;;8.10;99.90;;;;;;5113677;28;20030;-55
2021/12/05 11:42:56;;;;;;;312.90;154.77;;;8.10;99.90;;;;;;5113881;28;20027;-61
2021/12/05 11:45:22;;;;;;;286.70;142.27;;;7.90;99.90;;;;;;5113595;28;20128;-55
2021/12/05 11:47:51;;;;;;;219.48;116.57;;;7.80;99.90;;;;;;5113732;28;20024;-58
2021/12/05 11:50:19;;;;;;;215.02;112.43;;;7.80;99.90;;;;;;5113910;28;20031;-58
2021/12/05 11:52:48;;;;;;;219.70;118.00;;;8.00;99.90;;;;;;5113299;28;20051;-60
2021/12/05 11:55:26;;;;;;;222.55;116.88;;;8.10;99.90;;;;;;5113465;28;20503;-58
2021/12/05 11:57:52;;;;;;;184.85;98.15;;;8.00;99.90;;;;;;5113569;28;20016;-58
2021/12/05 12:00:20;;;;;;;183.02;99.72;;;8.10;99.90;;;;;;5113406;28;20378;-57
2021/12/05 12:02:47;;;;;;;211.63;114.50;;;8.20;99.90;;;;;;5113456;28;20050;-59
2021/12/05 12:05:19;;;;;;;181.85;105.65;;;8.20;99.90;;;;;;5113506;28;20020;-58
2021/12/05 12:07:52;;;;;;;159.90;90.53;;;8.20;99.90;;;;;;5113399;28;20052;-56
2021/12/05 12:10:28;;;;;;;164.43;90.40;;;8.20;99.90;;;;;;5116006;28;20027;-53
2021/12/05 12:12:58;;;;;;;207.70;112.70;;;8.30;99.90;;;;;;5117393;28;20024;-61
2021/12/05 12:15:26;;;;;;;159.45;90.72;;;8.20;99.90;;;;;;5117570;28;20047;-60
2021/12/05 12:17:55;;;;;;;139.15;79.72;;;8.10;99.90;;;;;;5117460;28;20016;-53
2021/12/05 12:20:24;;;;;;;140.35;80.20;;;8.20;99.90;;;;;;5117163;28;20492;-58
2021/12/05 12:22:55;;;;;;;126.78;73.40;;;8.30;99.90;;;;;;5117254;28;20028;-57
2021/12/05 12:25:25;;;;;;;108.32;65.25;;;8.30;99.90;;;;;;5117218;28;20023;-54
2021/12/05 12:27:51;;;;;;;121.78;70.30;;;8.50;99.90;;;;;;5117269;28;20053;-57
2021/12/05 12:30:24;;;;;;;136.20;78.22;;;8.50;99.90;;;;;;5117178;28;20028;-59
2021/12/05 12:32:55;;;;;;;210.50;120.57;;;8.50;99.90;;;;;;5116844;28;20131;-57
2021/12/05 12:35:27;;;;;;;205.38;111.20;;;8.50;99.90;;;;;;5116955;28;20023;-62
2021/12/05 12:37:55;;;;;;;137.55;73.03;;;8.50;99.90;;;;;;5117279;28;20019;-55
2021/12/05 12:40:42;;;;;;;113.30;60.35;;;8.30;99.90;;;;;;5117123;28;20022;-61
2021/12/05 12:43:29;;;;;;;101.28;55.67;;;8.30;99.90;;;;;;5098537;28;20393;-60
2021/12/05 12:45:55;;;;;;;65.72;37.10;;;8.20;99.90;;;;;;5116633;28;20470;-61
2021/12/05 12:48:28;;;;;;;46.20;27.92;;;8.10;99.90;;;;;;5116797;28;20030;-58
2021/12/05 12:50:54;;;;;;;48.50;29.47;;;8.10;99.90;;;;;;5116956;28;20381;-60
2021/12/05 12:53:29;;;;;;;44.80;27.23;;;7.90;99.90;;;;;;5117246;28;20027;-61
2021/12/05 12:56:10;;;;;;;47.92;27.50;;;7.90;99.90;;;;;;5116890;28;20149;-60
2021/12/05 12:58:54;;;;;;;33.28;18.67;;;7.90;99.90;;;;;;5116700;28;20024;-59
2021/12/05 13:04:50;;;;;;;22.55;12.30;;;8.00;99.90;;;;;;5116328;28;20064;-60
2021/12/05 13:10:06;;;;;;;21.10;10.50;;;8.10;99.90;;;;;;5116479;28;20031;-57
2021/12/05 13:12:48;;;;;;;25.95;15.70;;;8.20;99.90;;;;;;5116370;28;20036;-61
2021/12/05 13:15:47;;;;;;;37.97;21.50;;;8.30;99.90;;;;;;5116382;28;20042;-56
2021/12/05 13:18:15;;;;;;;27.67;15.32;;;8.40;99.90;;;;;;5116331;28;20027;-57
2021/12/05 13:20:41;;;;;;;38.30;19.92;;;8.50;99.90;;;;;;5115677;28;20028;-54
2021/12/05 13:23:08;;;;;;;26.25;16.30;;;8.50;99.90;;;;;;5115877;28;20035;-61
2021/12/05 13:25:58;;;;;;;30.65;17.85;;;8.50;99.90;;;;;;5116225;28;20072;-55
2021/12/05 13:28:50;;;;;;;31.23;18.45;;;8.60;99.90;;;;;;5104068;28;20508;-61
2021/12/05 13:31:28;;;;;;;47.55;24.38;;;8.60;99.90;;;;;;5115508;28;20032;-61
2021/12/05 13:34:24;;;;;;;31.25;18.73;;;8.60;99.90;;;;;;5115520;28;20051;-59
2021/12/05 13:37:13;;;;;;;24.42;15.30;;;8.80;99.90;;;;;;5115922;28;20016;-59
2021/12/05 13:39:52;;;;;;;32.72;17.42;;;8.90;99.90;;;;;;5115964;28;20016;-54
2021/12/05 13:42:42;;;;;;;24.65;14.70;;;8.90;99.90;;;;;;5115637;28;20430;-57
2021/12/05 13:45:15;;;;;;;23.35;12.88;;;8.90;99.90;;;;;;5116037;28;20086;-60
2021/12/05 13:47:43;;;;;;;23.13;12.68;;;8.80;99.90;;;;;;5115752;28;20028;-57
2021/12/05 13:53:03;;;;;;;26.02;14.75;;;8.90;99.90;;;;;;5115881;28;20032;-60
2021/12/05 13:55:51;;;;;;;36.05;20.58;;;8.90;99.90;;;;;;5115602;28;20030;-59
2021/12/05 13:58:35;;;;;;;38.47;21.60;;;8.90;99.90;;;;;;5115664;28;20518;-54
2021/12/05 14:01:15;;;;;;;36.60;19.42;;;8.80;99.90;;;;;;5115328;28;20576;-56
2021/12/05 14:03:58;;;;;;;34.40;20.05;;;8.90;99.90;;;;;;5115334;28;20027;-57
2021/12/05 14:06:33;;;;;;;38.42;21.67;;;9.00;99.90;;;;;;5115268;28;20023;-56
2021/12/05 14:09:05;;;;;;;36.78;21.73;;;8.90;99.90;;;;;;5115246;28;20026;-58
2021/12/05 14:11:33;;;;;;;37.33;20.98;;;8.90;99.90;;;;;;5115202;28;20381;-54
2021/12/05 14:14:03;;;;;;;35.45;20.80;;;8.90;99.90;;;;;;5115431;28;20393;-55
2021/12/05 14:16:32;;;;;;;39.97;21.55;;;9.10;99.90;;;;;;5115069;28;20023;-58
2021/12/05 14:18:58;;;;;;;36.97;19.23;;;9.10;99.90;;;;;;5115052;28;20052;-55
2021/12/05 14:21:26;;;;;;;36.28;20.50;;;9.10;99.90;;;;;;5114984;28;20024;-58
2021/12/05 14:23:57;;;;;;;51.30;27.00;;;9.20;99.90;;;;;;5114924;28;20111;-56
2021/12/05 14:26:26;;;;;;;43.20;23.70;;;9.20;99.90;;;;;;5114830;28;20092;-61
2021/12/05 14:29:03;;;;;;;34.22;20.52;;;9.10;99.90;;;;;;5114977;28;20068;-53
2021/12/05 14:31:33;;;;;;;36.20;19.88;;;9.20;99.90;;;;;;5114663;28;20020;-59
2021/12/05 14:33:59;;;;;;;40.33;21.55;;;9.20;99.90;;;;;;5113814;28;20051;-57
2021/12/05 14:36:32;;;;;;;39.83;21.08;;;9.20;99.90;;;;;;5114805;28;20047;-58
2021/12/05 14:39:05;;;;;;;42.43;23.57;;;9.20;99.90;;;;;;5114916;28;20076;-57
2021/12/05 14:41:32;;;;;;;35.00;20.27;;;9.20;99.90;;;;;;5114737;28;20027;-59
2021/12/05 14:43:59;;;;;;;42.55;23.73;;;9.20;99.90;;;;;;5114576;28;20401;-59
2021/12/05 14:46:25;;;;;;;48.88;28.23;;;9.20;99.90;;;;;;5114282;28;20554;-61
2021/12/05 14:49:10;;;;;;;48.75;27.73;;;9.20;99.90;;;;;;5114515;28;20020;-57
2021/12/05 14:51:41;;;;;;;40.60;23.48;;;9.20;99.90;;;;;;5114625;28;20409;-55
2021/12/05 14:54:08;;;;;;;37.17;20.83;;;9.20;99.90;;;;;;5114337;28;20093;-55
2021/12/05 14:56:37;;;;;;;45.65;25.95;;;9.10;99.90;;;;;;5114624;28;20024;-57
2021/12/05 14:59:04;;;;;;;52.17;31.13;;;9.10;99.90;;;;;;5114179;28;20024;-59
2021/12/05 15:01:30;;;;;;;46.53;24.88;;;9.10;99.90;;;;;;5114397;28;20046;-59
2021/12/05 15:03:56;;;;;;;81.72;38.42;;;9.00;99.90;;;;;;5114457;28;20059;-55
2021/12/05 15:06:42;;;;;;;63.13;31.48;;;8.90;99.90;;;;;;5114142;28;20419;-59
2021/12/05 15:09:17;;;;;;;69.78;33.50;;;8.80;99.90;;;;;;5114194;28;20022;-59
2021/12/05 15:12:16;;;;;;;68.07;33.70;;;8.80;99.90;;;;;;5114104;28;20106;-56
2021/12/05 15:14:44;;;;;;;53.72;28.33;;;8.80;99.90;;;;;;5113750;28;20461;-53
2021/12/05 15:17:17;;;;;;;65.03;32.08;;;8.80;99.90;;;;;;5113974;28;20118;-61
2021/12/05 15:19:47;;;;;;;69.47;34.47;;;8.80;99.90;;;;;;5114031;28;20024;-57
2021/12/05 15:22:16;;;;;;;72.30;38.45;;;8.70;99.90;;;;;;5114028;28;20103;-56
2021/12/05 15:24:52;;;;;;;68.45;35.00;;;8.70;99.90;;;;;;5113928;28;20020;-58
2021/12/05 15:27:21;;;;;;;76.82;37.88;;;8.70;99.90;;;;;;5113887;28;20026;-59
2021/12/05 15:29:50;;;;;;;75.70;39.10;;;8.80;99.90;;;;;;5113659;28;20020;-55
2021/12/05 15:32:23;;;;;;;62.22;33.08;;;8.90;99.90;;;;;;5113766;28;20469;-60
2021/12/05 15:34:58;;;;;;;50.00;27.35;;;8.90;99.90;;;;;;5113976;28;20026;-56
2021/12/05 15:37:25;;;;;;;49.03;27.52;;;9.00;99.90;;;;;;5113687;28;20055;-59
2021/12/05 15:39:53;;;;;;;45.88;24.55;;;9.00;99.90;;;;;;5113812;28;20120;-60
2021/12/05 15:42:26;;;;;;;37.60;22.33;;;9.00;99.90;;;;;;5113569;28;20016;-55
2021/12/05 15:44:54;;;;;;;28.08;16.63;;;9.10;99.90;;;;;;5113322;28;20545;-60
2021/12/05 15:47:24;;;;;;;26.38;16.02;;;9.10;99.90;;;;;;5113555;28;20028;-58
2021/12/05 15:49:58;;;;;;;27.17;15.23;;;9.10;99.90;;;;;;5113787;28;20107;-58
2021/12/05 15:52:35;;;;;;;151.05;66.68;;;9.20;99.90;;;;;;5095375;28;20027;-62
2021/12/05 15:55:04;;;;;;;116.57;52.70;;;9.00;99.90;;;;;;5113575;28;20027;-59
2021/12/05 15:57:33;;;;;;;181.38;82.38;;;8.90;99.90;;;;;;5113360;28;20461;-58
2021/12/05 16:00:04;;;;;;;145.75;78.40;;;9.00;99.90;;;;;;5113552;28;20141;-57
2021/12/05 16:02:30;;;;;;;130.52;71.40;;;8.90;99.90;;;;;;5113350;28;20478;-62
2021/12/05 16:04:56;;;;;;;121.05;64.57;;;8.80;99.90;;;;;;5113467;28;20026;-59
2021/12/05 16:07:28;;;;;;;119.00;62.90;;;8.70;99.90;;;;;;5113685;28;20026;-58
2021/12/05 16:10:23;;;;;;;106.97;56.55;;;8.80;99.90;;;;;;5113530;28;20547;-52
2021/12/05 16:12:52;;;;;;;161.60;80.65;;;8.90;99.90;;;;;;5113230;28;20416;-51
2021/12/05 16:15:24;;;;;;;192.23;92.53;;;8.90;99.90;;;;;;5113324;28;20550;-54
2021/12/05 16:17:59;;;;;;;145.07;78.18;;;8.70;99.90;;;;;;5113343;28;20011;-54
2021/12/05 16:20:35;;;;;;;271.63;138.50;;;8.70;99.90;;;;;;5113357;28;20020;-60
2021/12/05 16:23:09;;;;;;;242.10;134.55;;;8.80;99.90;;;;;;5113535;28;20065;-63
2021/12/05 16:25:39;;;;;;;219.02;120.47;;;8.80;99.90;;;;;;5113299;28;20024;-62
2021/12/05 16:28:06;;;;;;;228.88;122.53;;;8.80;99.90;;;;;;5113335;28;20023;-54
2021/12/05 16:30:35;;;;;;;187.57;102.47;;;8.80;99.90;;;;;;5113130;28;20024;-57
2021/12/05 16:33:04;;;;;;;135.48;80.57;;;8.90;99.90;;;;;;5113137;28;20070;-56
2021/12/05 16:35:39;;;;;;;144.07;82.00;;;8.90;99.90;;;;;;5113262;28;20073;-54
2021/12/05 16:38:33;;;;;;;147.32;86.47;;;8.90;99.90;;;;;;5113122;28;20507;-59
2021/12/05 16:41:08;;;;;;;335.05;159.07;;;9.00;99.90;;;;;;5105154;28;20504;-61
2021/12/05 16:43:36;;;;;;;119.30;72.38;;;9.10;99.90;;;;;;5113158;28;20038;-58
2021/12/05 16:46:17;;;;;;;173.57;95.45;;;8.90;99.90;;;;;;5095283;28;20369;-59
2021/12/05 16:48:44;;;;;;;201.32;113.07;;;8.70;99.90;;;;;;5113356;28;20111;-54
2021/12/05 16:51:21;;;;;;;196.45;107.32;;;8.80;99.90;;;;;;5113094;28;20024;-56
2021/12/05 16:53:50;;;;;;;161.27;92.40;;;8.80;99.90;;;;;;5112887;28;20024;-55
2021/12/05 16:56:38;;;;;;;199.45;110.82;;;8.70;99.90;;;;;;5113546;28;20030;-61
2021/12/05 16:59:11;;;;;;;177.57;102.13;;;8.70;99.90;;;;;;5116564;28;20055;-53
2021/12/05 17:01:37;;;;;;;156.25;91.70;;;8.60;99.90;;;;;;5116712;28;20423;-57
2021/12/05 17:04:04;;;;;;;124.30;69.55;;;8.50;99.90;;;;;;5116530;28;20039;-59
2021/12/05 17:06:44;;;;;;;135.75;74.90;;;8.70;99.90;;;;;;5116465;28;20026;-59
2021/12/05 17:09:12;;;;;;;117.25;67.85;;;8.80;99.90;;;;;;5116382;28;20019;-59
2021/12/05 17:11:38;;;;;;;123.70;69.40;;;8.90;99.90;;;;;;5116181;28;20023;-53
2021/12/05 17:14:05;;;;;;;103.25;61.90;;;8.90;99.90;;;;;;5116366;28;20469;-57
2021/12/05 17:16:32;;;;;;;118.68;65.47;;;9.00;99.90;;;;;;5116399;28;20531;-58
2021/12/05 17:19:08;;;;;;;100.68;59.33;;;9.00;99.90;;;;;;5116172;28;20442;-62
2021/12/05 17:21:37;;;;;;;80.63;50.40;;;9.00;99.90;;;;;;5116465;28;20032;-57
2021/12/05 17:24:16;;;;;;;81.72;48.83;;;9.10;99.90;;;;;;5116319;28;20469;-58
2021/12/05 17:26:57;;;;;;;108.55;60.90;;;9.00;99.90;;;;;;5116222;28;20016;-57
2021/12/05 17:29:38;;;;;;;127.55;71.72;;;8.80;99.90;;;;;;5116021;28;20098;-55
2021/12/05 17:32:23;;;;;;;118.43;65.47;;;8.70;99.90;;;;;;5115863;28;20111;-59
2021/12/05 17:34:56;;;;;;;167.00;87.47;;;8.70;99.90;;;;;;5115898;28;20435;-52
2021/12/05 17:37:28;;;;;;;109.57;63.47;;;8.70;99.90;;;;;;5116322;28;20055;-58
2021/12/05 17:39:54;;;;;;;119.97;66.95;;;8.70;99.90;;;;;;5115681;28;20073;-60
2021/12/05 17:42:26;;;;;;;93.63;55.92;;;8.70;99.90;;;;;;5115719;28;20103;-52
2021/12/05 17:44:56;;;;;;;103.22;59.17;;;8.70;99.90;;;;;;5116083;28;20389;-55
2021/12/05 17:47:24;;;;;;;138.05;76.05;;;8.80;99.90;;;;;;5115602;28;20026;-54
2021/12/05 17:49:53;;;;;;;130.65;70.47;;;8.80;99.90;;;;;;5115722;28;20019;-51
2021/12/05 17:52:22;;;;;;;120.40;68.78;;;8.90;99.90;;;;;;5115894;28;20058;-54
2021/12/05 17:55:26;;;;;;;131.70;72.63;;;8.90;99.90;;;;;;5115334;28;20016;-57
2021/12/05 17:57:44;;;;;;;112.30;65.30;;;8.80;99.90;;;;;;5112167;28;20108;-60
2021/12/05 18:00:38;;;;;;;91.25;53.17;;;8.70;99.90;;;;;;5115441;28;20015;-56
2021/12/05 18:03:10;;;;;;;119.03;64.45;;;8.70;99.90;;;;;;5115545;28;20043;-58
2021/12/05 18:05:44;;;;;;;125.10;67.70;;;8.80;99.90;;;;;;5115680;28;20459;-58
2021/12/05 18:08:14;;;;;;;102.57;56.40;;;8.70;99.90;;;;;;5115122;28;20628;-62
2021/12/05 18:10:47;;;;;;;108.28;58.55;;;8.70;99.90;;;;;;5115152;28;20470;-56
2021/12/05 18:13:15;;;;;;;108.28;61.95;;;8.70;99.90;;;;;;5115276;28;20027;-57
2021/12/05 18:15:48;;;;;;;117.20;66.30;;;8.70;99.90;;;;;;5115212;28;20462;-56
2021/12/05 18:18:16;;;;;;;121.38;67.32;;;8.80;99.90;;;;;;5115015;28;20028;-54
2021/12/05 18:20:43;;;;;;;210.48;119.25;;;8.80;99.90;;;;;;5115097;28;20030;-53
2021/12/05 18:23:10;;;;;;;226.02;120.38;;;8.80;99.90;;;;;;5114727;28;20024;-60
2021/12/05 18:25:38;;;;;;;368.90;183.73;;;8.60;99.90;;;;;;5114949;28;20051;-60
2021/12/05 18:28:05;;;;;;;260.85;135.93;;;8.50;99.90;;;;;;5096699;28;20028;-60
2021/12/05 18:30:32;;;;;;;222.15;125.70;;;8.50;99.90;;;;;;5114708;28;20504;-60